Time;durP1;ratioP1;P1;durP2;ratioP2;P2;SDS_P1;SDS_P2;PMS_P1;PMS_P2;Temp;Humidity;BMP_temperature;BMP_pressure;BME280_temperature;BME280_humidity;BME280_pressure;Samples;Min_cycle;Max_cycle;Signal;HPM_P1;HPM_P2
2022/10/08 00:01:06;;;;;;;33.22;6.13;;;;;;;11.75;84.30;101521.47;5136358;27;20038;-43
2022/10/08 00:03:34;;;;;;;23.08;5.95;;;;;;;11.72;84.89;101526.50;5136209;27;20037;-43
2022/10/08 00:06:00;;;;;;;28.85;5.80;;;;;;;11.66;85.14;101511.66;5135691;27;20042;-46
2022/10/08 00:08:28;;;;;;;24.60;5.23;;;;;;;11.64;85.21;101522.78;5136371;27;20023;-44
2022/10/08 00:11:00;;;;;;;23.17;5.50;;;;;;;11.66;84.96;101515.97;5136128;27;20023;-42
2022/10/08 00:13:27;;;;;;;25.83;6.03;;;;;;;11.66;85.24;101518.56;5135482;27;20055;-43
2022/10/08 00:15:53;;;;;;;25.80;5.90;;;;;;;11.71;85.01;101511.84;5135865;27;20019;-44
2022/10/08 00:18:19;;;;;;;29.63;5.30;;;;;;;11.75;84.86;101511.13;5135811;27;20469;-45
2022/10/08 00:20:46;;;;;;;27.00;6.25;;;;;;;11.82;84.47;101518.25;5135115;27;20054;-46
2022/10/08 00:23:11;;;;;;;20.33;4.72;;;;;;;11.84;84.73;101521.78;5136015;27;20043;-43
2022/10/08 00:25:44;;;;;;;22.20;5.38;;;;;;;11.86;84.44;101514.97;5135761;27;20058;-44
2022/10/08 00:28:10;;;;;;;32.10;6.00;;;;;;;11.90;84.37;101520.22;5135133;27;20038;-44
2022/10/08 00:30:38;;;;;;;23.30;5.40;;;;;;;11.90;84.46;101515.06;5135495;27;20057;-43
2022/10/08 00:33:04;;;;;;;;;;;;;;;11.96;84.03;101518.78;5135367;27;20034;-43
2022/10/08 00:35:29;;;;;;;23.45;5.60;;;;;;;11.94;84.61;101511.75;5135624;27;19912;-43
2022/10/08 00:37:55;;;;;;;23.65;5.90;;;;;;;11.95;84.76;101518.69;5135581;27;20026;-43
2022/10/08 00:40:20;;;;;;;25.75;6.05;;;;;;;11.94;84.93;101514.34;5134928;27;20027;-46
2022/10/08 00:42:45;;;;;;;23.23;5.63;;;;;;;11.94;85.05;101517.81;5135335;27;20023;-47
2022/10/08 00:45:12;;;;;;;21.13;5.30;;;;;;;11.95;84.86;101519.59;5135526;27;20530;-43
2022/10/08 00:47:41;;;;;;;31.80;6.10;;;;;;;11.95;85.75;101529.03;5134181;27;20069;-45
2022/10/08 00:50:12;;;;;;;21.38;5.80;;;;;;;11.93;85.47;101521.22;5135368;27;20544;-44
2022/10/08 00:52:46;;;;;;;30.80;6.35;;;;;;;11.93;85.82;101533.25;5135171;27;20030;-46
2022/10/08 00:55:13;;;;;;;26.48;6.38;;;;;;;11.93;86.01;101530.66;5134605;27;20019;-43
2022/10/08 00:57:40;;;;;;;20.33;5.78;;;;;;;11.92;86.18;101541.84;5135164;27;20443;-44
2022/10/08 01:00:12;;;;;;;33.72;6.88;;;;;;;11.91;86.49;101538.38;5134468;27;20031;-43
2022/10/08 01:02:37;;;;;;;23.35;6.05;;;;;;;11.90;86.57;101538.31;5134096;27;20355;-44
2022/10/08 01:05:04;;;;;;;24.75;6.32;;;;;;;11.88;86.80;101542.53;5135236;27;20030;-45
2022/10/08 01:07:44;;;;;;;25.90;7.07;;;;;;;11.89;86.86;101544.31;5135166;27;20028;-44
2022/10/08 01:10:33;;;;;;;30.95;6.60;;;;;;;11.90;87.01;101551.22;5134655;27;20301;-43
2022/10/08 01:13:28;;;;;;;29.13;6.68;;;;;;;11.88;87.75;101543.44;5135145;27;20051;-43
2022/10/08 01:16:12;;;;;;;24.38;6.05;;;;;;;11.90;87.77;101551.22;5116134;27;20435;-46
2022/10/08 01:19:10;;;;;;;25.25;6.45;;;;;;;11.84;90.11;101551.91;5134601;27;20057;-42
2022/10/08 01:21:48;;;;;;;28.30;7.55;;;;;;;11.68;93.33;101551.34;5134742;27;20031;-44
2022/10/08 01:25:31;;;;;;;24.10;6.85;;;;;;;11.58;95.51;101556.09;5134094;27;20478;-44
2022/10/08 01:27:43;;;;;;;28.13;7.63;;;;;;;11.43;98.10;101556.44;5134476;27;20035;-44
2022/10/08 01:30:18;;;;;;;25.17;8.07;;;;;;;11.34;99.76;101546.63;5122617;27;20483;-44
2022/10/08 01:32:52;;;;;;;26.55;9.23;;;;;;;11.23;100.00;101560.81;5134457;27;20063;-43
2022/10/08 01:35:28;;;;;;;23.85;9.95;;;;;;;11.15;100.00;101553.66;5134546;27;20053;-43
2022/10/08 01:37:57;;;;;;;26.88;11.25;;;;;;;11.04;100.00;101555.84;5133604;27;20151;-44
2022/10/08 01:40:29;;;;;;;29.20;10.75;;;;;;;10.98;100.00;101559.88;5134611;27;20034;-44
2022/10/08 01:42:58;;;;;;;29.10;12.20;;;;;;;10.92;100.00;101555.34;5134365;27;20501;-43
2022/10/08 01:45:31;;;;;;;29.65;11.40;;;;;;;10.89;100.00;101549.19;5133493;27;20415;-44
2022/10/08 01:48:02;;;;;;;39.78;12.60;;;;;;;10.84;100.00;101547.28;5134343;27;20114;-43
2022/10/08 01:51:01;;;;;;;31.45;11.73;;;;;;;10.84;100.00;101544.72;5133825;27;20124;-42
2022/10/08 01:53:32;;;;;;;28.92;11.55;;;;;;;10.73;100.00;101551.16;5115672;27;20023;-43
2022/10/08 01:56:01;;;;;;;34.85;11.45;;;;;;;10.72;100.00;101551.97;5134226;27;20099;-42
2022/10/08 01:58:38;;;;;;;31.88;12.57;;;;;;;10.69;100.00;101554.41;5133319;27;20080;-43
2022/10/08 02:01:18;;;;;;;31.67;11.80;;;;;;;10.67;100.00;101556.06;5134328;27;20106;-45
2022/10/08 02:04:31;;;;;;;28.73;10.43;;;;;;;10.65;100.00;101565.44;5134044;27;20023;-43
2022/10/08 02:06:35;;;;;;;26.15;11.68;;;;;;;10.64;100.00;101563.66;5133032;27;20039;-43
2022/10/08 02:09:02;;;;;;;27.90;11.20;;;;;;;10.59;100.00;101558.34;5134303;27;20027;-42
2022/10/08 02:11:27;;;;;;;32.40;11.57;;;;;;;10.59;100.00;101570.31;5133451;27;20034;-44
2022/10/08 02:13:53;;;;;;;33.58;11.68;;;;;;;10.57;100.00;101566.81;5133009;27;20019;-43
2022/10/08 02:16:26;;;;;;;29.75;10.57;;;;;;;10.52;100.00;101569.19;5134015;28;20144;-43
2022/10/08 02:19:06;;;;;;;28.45;9.32;;;;;;;10.48;100.00;101560.50;5132906;27;20061;-43
2022/10/08 02:21:33;;;;;;;23.67;9.38;;;;;;;10.47;100.00;101560.41;5133616;28;20447;-45
2022/10/08 02:24:12;;;;;;;24.83;8.90;;;;;;;10.44;100.00;101556.00;5134068;28;20027;-44
2022/10/08 02:26:45;;;;;;;24.77;8.73;;;;;;;10.43;100.00;101564.56;5132887;28;20027;-45
2022/10/08 02:29:19;;;;;;;22.40;8.43;;;;;;;10.41;100.00;101562.75;5133810;28;20519;-45
2022/10/08 02:32:03;;;;;;;25.13;8.57;;;;;;;10.38;100.00;101573.81;5133452;28;20038;-46
2022/10/08 02:34:34;;;;;;;20.70;8.13;;;;;;;10.33;100.00;101563.25;5133187;28;20034;-44
2022/10/08 02:37:09;;;;;;;26.70;8.90;;;;;;;10.32;100.00;101571.78;5133933;28;20031;-44
2022/10/08 02:39:39;;;;;;;24.27;7.88;;;;;;;10.33;100.00;101570.13;5133785;28;20069;-44
2022/10/08 02:42:09;;;;;;;24.98;6.80;;;;;;;10.30;100.00;101573.44;5133571;28;20515;-45
2022/10/08 02:44:41;;;;;;;29.48;8.25;;;;;;;10.28;100.00;101569.03;5133702;28;20023;-45
2022/10/08 02:47:10;;;;;;;22.92;7.00;;;;;;;10.25;100.00;101569.78;5132626;28;20486;-43
2022/10/08 02:49:44;;;;;;;23.02;6.80;;;;;;;10.25;100.00;101564.63;5133340;28;20385;-44
2022/10/08 02:52:10;;;;;;;25.25;7.03;;;;;;;10.23;100.00;101560.25;5133584;28;20382;-45
2022/10/08 02:54:41;;;;;;;24.90;6.47;;;;;;;10.17;100.00;101569.47;5132479;28;20016;-44
2022/10/08 02:57:12;;;;;;;20.67;6.53;;;;;;;10.15;100.00;101565.94;5133808;28;20027;-44
2022/10/08 02:59:37;;;;;;;20.38;6.50;;;;;;;10.13;100.00;101564.97;5133479;28;20038;-44
2022/10/08 03:02:04;;;;;;;19.75;5.78;;;;;;;10.10;100.00;101564.84;5132926;28;20024;-44
2022/10/08 03:04:37;;;;;;;18.75;6.18;;;;;;;10.05;100.00;101562.06;5133433;28;20347;-44
2022/10/08 03:07:04;;;;;;;18.95;6.30;;;;;;;10.07;100.00;101558.69;5133527;28;20454;-44
2022/10/08 03:09:38;;;;;;;26.20;6.90;;;;;;;10.02;100.00;101566.22;5132889;28;20023;-46
2022/10/08 03:12:05;;;;;;;21.58;5.65;;;;;;;10.00;100.00;101565.28;5133675;28;20031;-45
2022/10/08 03:14:34;;;;;;;24.35;6.40;;;;;;;9.99;100.00;101566.97;5133397;28;20363;-44
2022/10/08 03:16:59;;;;;;;20.73;5.80;;;;;;;9.99;100.00;101576.38;5132640;28;20029;-46
2022/10/08 03:19:26;;;;;;;21.45;6.25;;;;;;;9.96;100.00;101579.69;5133226;28;20031;-43
2022/10/08 03:21:54;;;;;;;21.92;6.20;;;;;;;9.95;100.00;101584.78;5132304;27;20382;-44
2022/10/08 03:24:19;;;;;;;20.80;5.50;;;;;;;9.94;100.00;101577.88;5137175;27;20026;-43
2022/10/08 03:26:45;;;;;;;17.60;5.75;;;;;;;9.94;100.00;101576.19;5136835;27;20106;-44
2022/10/08 03:29:10;;;;;;;19.45;5.43;;;;;;;9.93;100.00;101586.41;5136179;27;20549;-44
2022/10/08 03:31:36;;;;;;;20.17;6.07;;;;;;;9.93;100.00;101579.56;5136701;27;20031;-47
2022/10/08 03:34:01;;;;;;;18.33;5.13;;;;;;;9.91;100.00;101576.03;5136988;27;20072;-44
2022/10/08 03:36:28;;;;;;;17.08;4.93;;;;;;;9.91;100.00;101588.03;5136295;27;20030;-45
2022/10/08 03:38:53;;;;;;;16.65;4.85;;;;;;;9.88;100.00;101594.81;5136598;27;20027;-45
2022/10/08 03:41:18;;;;;;;15.68;5.03;;;;;;;9.91;100.00;101593.19;5136883;27;20481;-45
2022/10/08 03:43:44;;;;;;;18.55;5.13;;;;;;;9.86;100.00;101595.56;5135860;27;20027;-44
2022/10/08 03:46:11;;;;;;;18.60;5.20;;;;;;;9.84;100.00;101599.78;5136601;27;20047;-44
2022/10/08 03:48:37;;;;;;;17.73;5.43;;;;;;;9.80;100.00;101600.41;5136436;27;20028;-44
2022/10/08 03:51:06;;;;;;;14.00;5.65;;;;;;;9.73;100.00;101604.41;5135984;27;20019;-46
2022/10/08 03:53:33;;;;;;;19.23;5.90;;;;;;;9.69;100.00;101602.53;5136469;27;20114;-48
2022/10/08 03:56:00;;;;;;;20.10;6.20;;;;;;;9.63;100.00;101599.66;5136664;27;20023;-44
2022/10/08 03:58:26;;;;;;;17.27;6.38;;;;;;;9.58;100.00;101603.72;5135560;27;20042;-44
2022/10/08 04:00:59;;;;;;;19.27;5.97;;;;;;;9.47;100.00;101604.13;5136258;27;20028;-44
2022/10/08 04:03:25;;;;;;;19.30;6.70;;;;;;;9.52;100.00;101606.91;5136726;27;20553;-44
2022/10/08 04:05:51;;;;;;;20.80;6.80;;;;;;;9.46;100.00;101609.19;5135328;27;20055;-44
2022/10/08 04:08:16;;;;;;;19.70;6.88;;;;;;;9.41;100.00;101611.53;5136390;27;20110;-43
2022/10/08 04:10:41;;;;;;;15.88;6.53;;;;;;;9.41;100.00;101606.41;5136011;27;20481;-44
2022/10/08 04:13:07;;;;;;;21.10;7.50;;;;;;;9.39;100.00;101610.59;5135425;27;20031;-44
2022/10/08 04:15:32;;;;;;;22.83;7.93;;;;;;;9.39;100.00;101611.47;5135885;27;20464;-46
2022/10/08 04:17:57;;;;;;;19.08;7.97;;;;;;;9.42;100.00;101615.00;5135983;27;20052;-45
2022/10/08 04:20:23;;;;;;;23.02;9.25;;;;;;;9.46;100.00;101625.50;5135450;27;20027;-44
2022/10/08 04:22:48;;;;;;;31.42;11.02;;;;;;;9.52;100.00;101619.78;5135884;27;20107;-45
2022/10/08 04:25:13;;;;;;;25.40;12.30;;;;;;;9.55;100.00;101615.66;5135352;27;20102;-44
2022/10/08 04:27:39;;;;;;;37.70;16.10;;;;;;;9.62;100.00;101621.06;5135631;27;20023;-47
2022/10/08 04:30:05;;;;;;;40.13;17.23;;;;;;;9.67;100.00;101619.59;5135749;27;20054;-44
2022/10/08 04:32:30;;;;;;;40.22;19.80;;;;;;;9.71;100.00;101626.66;5134563;27;20030;-44
2022/10/08 04:34:55;;;;;;;42.45;21.85;;;;;;;9.77;100.00;101621.75;5135022;27;20023;-46
2022/10/08 04:37:21;;;;;;;45.40;23.80;;;;;;;9.80;100.00;101621.91;5135910;27;20386;-46
2022/10/08 04:39:47;;;;;;;56.50;25.55;;;;;;;9.85;100.00;101627.25;5134682;27;20023;-44
2022/10/08 04:42:12;;;;;;;59.30;30.58;;;;;;;9.89;100.00;101632.63;5135632;27;20039;-47
2022/10/08 04:44:37;;;;;;;55.20;29.40;;;;;;;9.93;100.00;101630.19;5135328;27;20351;-44
2022/10/08 04:47:02;;;;;;;57.78;31.23;;;;;;;9.96;100.00;101628.63;5134520;27;20058;-45
2022/10/08 04:49:28;;;;;;;58.53;32.28;;;;;;;9.97;100.00;101637.25;5135660;27;20106;-44
2022/10/08 04:51:54;;;;;;;66.00;35.03;;;;;;;9.99;100.00;101640.75;5135143;27;20023;-44
2022/10/08 04:54:19;;;;;;;71.28;37.83;;;;;;;10.01;100.00;101652.88;5134692;27;20023;-44
2022/10/08 04:56:45;;;;;;;70.72;37.10;;;;;;;10.05;100.00;101653.91;5135074;27;20023;-48
2022/10/08 04:59:10;;;;;;;73.93;40.15;;;;;;;10.06;100.00;101655.69;5135216;27;20050;-44
2022/10/08 05:01:35;;;;;;;87.15;44.75;;;;;;;10.05;100.00;101661.63;5133995;27;20469;-48
2022/10/08 05:04:00;;;;;;;87.93;44.85;;;;;;;10.08;100.00;101660.91;5135099;27;20377;-44
2022/10/08 05:06:29;;;;;;;95.88;47.78;;;;;;;10.11;100.00;101664.50;5135359;27;20027;-43
2022/10/08 05:08:55;;;;;;;103.82;50.45;;;;;;;10.15;100.00;101665.53;5134160;27;20030;-45
2022/10/08 05:11:24;;;;;;;101.25;51.47;;;;;;;10.13;100.00;101672.28;5135155;27;20021;-47
2022/10/08 05:13:51;;;;;;;99.45;50.58;;;;;;;10.08;100.00;101669.50;5134785;27;20015;-44
2022/10/08 05:16:17;;;;;;;111.18;53.45;;;;;;;10.12;100.00;101665.38;5134091;27;20033;-44
2022/10/08 05:18:42;;;;;;;129.30;57.35;;;;;;;10.12;100.00;101674.00;5134759;27;20027;-45
2022/10/08 05:21:13;;;;;;;124.63;57.80;;;;;;;10.14;100.00;101676.63;5134949;27;20359;-43
2022/10/08 05:23:41;;;;;;;118.50;57.90;;;;;;;10.09;100.00;101675.53;5134108;27;20106;-44
2022/10/08 05:26:17;;;;;;;116.15;55.03;;;;;;;10.09;100.00;101680.69;5134667;27;20046;-44
2022/10/08 05:28:45;;;;;;;108.53;55.13;;;;;;;10.07;100.00;101679.72;5133630;27;20501;-43
2022/10/08 05:31:11;;;;;;;122.55;58.80;;;;;;;10.05;100.00;101679.66;5134779;27;20019;-45
2022/10/08 05:33:37;;;;;;;134.48;62.17;;;;;;;10.04;100.00;101683.94;5134256;27;20042;-43
2022/10/08 05:36:04;;;;;;;128.68;61.03;;;;;;;10.01;100.00;101685.50;5133993;27;20559;-45
2022/10/08 05:38:29;;;;;;;131.13;61.72;;;;;;;9.98;100.00;101685.34;5134448;27;20023;-44
2022/10/08 05:40:54;;;;;;;140.77;64.80;;;;;;;9.97;100.00;101693.91;5134270;27;20046;-44
2022/10/08 05:43:20;;;;;;;138.45;63.13;;;;;;;10.00;100.00;101692.31;5134116;27;20019;-43
2022/10/08 05:45:51;;;;;;;139.65;65.57;;;;;;;9.96;100.00;101697.28;5133887;27;20130;-50
2022/10/08 05:48:16;;;;;;;141.07;64.70;;;;;;;9.97;100.00;101702.50;5134676;27;20031;-48
2022/10/08 05:50:42;;;;;;;140.20;65.57;;;;;;;9.96;100.00;101705.00;5133177;27;20471;-46
2022/10/08 05:53:07;;;;;;;146.25;67.00;;;;;;;9.98;100.00;101711.09;5134259;27;20031;-49
2022/10/08 05:55:32;;;;;;;148.15;68.18;;;;;;;9.96;100.00;101712.75;5134081;27;20019;-49
2022/10/08 05:57:58;;;;;;;152.27;69.38;;;;;;;9.97;100.00;101707.66;5133219;27;20027;-49
2022/10/08 06:00:23;;;;;;;155.80;70.55;;;;;;;9.93;100.00;101715.16;5134168;27;20023;-49
2022/10/08 06:02:49;;;;;;;158.20;70.53;;;;;;;9.93;100.00;101721.19;5134006;27;20015;-48
2022/10/08 06:05:14;;;;;;;167.43;72.10;;;;;;;9.97;100.00;101723.09;5133382;27;20539;-48
2022/10/08 06:07:39;;;;;;;165.88;71.32;;;;;;;9.96;100.00;101731.63;5133848;27;20019;-49
2022/10/08 06:10:05;;;;;;;165.75;70.47;;;;;;;9.95;100.00;101734.16;5134029;27;20044;-48
2022/10/08 06:12:30;;;;;;;150.32;67.13;;;;;;;9.93;100.00;101728.94;5132810;27;20016;-46
2022/10/08 06:14:56;;;;;;;147.55;67.38;;;;;;;9.92;100.00;101741.75;5134133;27;20020;-47
2022/10/08 06:17:21;;;;;;;164.43;68.18;;;;;;;9.90;100.00;101741.63;5134045;27;20389;-50
2022/10/08 06:19:46;;;;;;;161.70;68.45;;;;;;;9.88;100.00;101739.00;5132837;27;20038;-48
2022/10/08 06:22:12;;;;;;;149.82;67.97;;;;;;;9.83;100.00;101755.06;5133901;28;20015;-50
2022/10/08 06:24:37;;;;;;;159.98;68.57;;;;;;;9.83;100.00;101750.78;5133684;28;20035;-50
2022/10/08 06:27:02;;;;;;;164.75;67.63;;;;;;;9.83;100.00;101750.78;5133033;28;20106;-48
2022/10/08 06:29:27;;;;;;;157.02;66.38;;;;;;;9.79;100.00;101764.31;5133966;28;20112;-49
2022/10/08 06:31:53;;;;;;;155.10;65.68;;;;;;;9.80;100.00;101771.25;5132795;28;20015;-48
2022/10/08 06:34:18;;;;;;;155.32;66.10;;;;;;;9.81;100.00;101775.59;5133867;28;20020;-48
2022/10/08 06:36:44;;;;;;;156.27;66.95;;;;;;;9.82;100.00;101784.19;5133511;28;20019;-49
2022/10/08 06:39:13;;;;;;;158.00;66.30;;;;;;;9.80;100.00;101786.69;5132807;28;20453;-49
2022/10/08 06:41:38;;;;;;;157.32;65.68;;;;;;;9.82;100.00;101789.34;5133338;28;20027;-50
2022/10/08 06:44:05;;;;;;;163.40;66.72;;;;;;;9.85;100.00;101794.63;5133837;28;20527;-45
2022/10/08 06:46:31;;;;;;;158.65;68.32;;;;;;;9.82;100.00;101795.34;5132505;28;20046;-46
2022/10/08 06:48:57;;;;;;;155.55;67.05;;;;;;;9.82;100.00;101795.34;5133579;28;20027;-48
2022/10/08 06:51:23;;;;;;;159.07;67.05;;;;;;;9.85;100.00;101803.25;5133723;28;20031;-49
2022/10/08 06:53:55;;;;;;;142.20;61.80;;;;;;;9.86;100.00;101812.75;5132555;28;20106;-48
2022/10/08 06:56:23;;;;;;;151.68;64.85;;;;;;;9.95;100.00;101809.69;5133501;28;20051;-48
2022/10/08 06:58:49;;;;;;;143.73;63.90;;;;;;;9.97;100.00;101820.09;5136445;27;20088;-45
2022/10/08 07:01:19;;;;;;;142.27;62.13;;;;;;;10.04;100.00;101827.28;5136953;27;20027;-48
2022/10/08 07:03:49;;;;;;;137.15;60.10;;;;;;;10.10;100.00;101843.03;5137308;27;20029;-50
2022/10/08 07:06:14;;;;;;;141.75;61.13;;;;;;;10.20;100.00;101837.50;5137415;27;20043;-47
2022/10/08 07:08:40;;;;;;;128.30;57.88;;;;;;;10.27;100.00;101840.38;5136288;27;20050;-47
2022/10/08 07:11:11;;;;;;;132.93;57.88;;;;;;;10.34;100.00;101844.97;5137601;27;20050;-49
2022/10/08 07:13:38;;;;;;;120.43;54.72;;;;;;;10.43;100.00;101848.06;5137228;27;20101;-48
2022/10/08 07:16:14;;;;;;;95.78;49.78;;;;;;;10.43;100.00;101850.63;5136646;27;20027;-50
2022/10/08 07:18:40;;;;;;;96.05;49.70;;;;;;;10.44;100.00;101854.94;5136891;27;20106;-46
2022/10/08 07:21:07;;;;;;;93.13;46.58;;;;;;;10.51;100.00;101859.59;5136457;27;20019;-48
2022/10/08 07:23:33;;;;;;;81.93;43.22;;;;;;;10.54;100.00;101857.13;5137045;27;20093;-48
2022/10/08 07:26:05;;;;;;;79.35;39.80;;;;;;;10.55;100.00;101860.63;5137177;27;20043;-49
2022/10/08 07:28:35;;;;;;;76.93;40.20;;;;;;;10.62;100.00;101870.38;5136097;27;20028;-49
2022/10/08 07:31:04;;;;;;;72.35;36.92;;;;;;;10.64;100.00;101871.34;5137029;27;20055;-49
2022/10/08 07:33:29;;;;;;;62.92;32.45;;;;;;;10.75;100.00;101869.25;5136854;27;20042;-49
2022/10/08 07:35:55;;;;;;;62.05;31.35;;;;;;;10.86;100.00;101873.19;5135801;27;20382;-49
2022/10/08 07:38:20;;;;;;;51.38;28.05;;;;;;;10.93;100.00;101871.75;5136745;27;20079;-50
2022/10/08 07:40:47;;;;;;;48.55;26.02;;;;;;;10.93;100.00;101879.50;5136726;27;20030;-48
2022/10/08 07:43:12;;;;;;;54.05;25.58;;;;;;;11.01;100.00;101887.56;5135981;27;20027;-50
2022/10/08 07:45:43;;;;;;;48.72;23.58;;;;;;;11.17;100.00;101892.59;5136255;27;20029;-48
2022/10/08 07:48:08;;;;;;;43.60;23.08;;;;;;;11.28;100.00;101885.31;5136732;27;20377;-48
2022/10/08 07:50:34;;;;;;;42.55;21.17;;;;;;;11.31;100.00;101893.22;5135492;27;20484;-47
2022/10/08 07:52:59;;;;;;;39.67;19.20;;;;;;;11.44;100.00;101885.97;5136857;27;20027;-49
2022/10/08 07:55:25;;;;;;;33.40;16.33;;;;;;;11.48;100.00;101904.25;5136631;27;20187;-49
2022/10/08 07:57:50;;;;;;;36.72;17.23;;;;;;;11.59;100.00;101894.38;5135473;27;20027;-48
2022/10/08 08:00:15;;;;;;;33.50;16.88;;;;;;;11.64;100.00;101894.59;5136272;27;20030;-50
2022/10/08 08:02:40;;;;;;;32.15;14.88;;;;;;;11.72;100.00;101897.50;5136155;27;20095;-50
2022/10/08 08:05:06;;;;;;;30.50;14.73;;;;;;;11.79;100.00;101900.38;5135473;27;20054;-49
2022/10/08 08:07:31;;;;;;;37.55;14.68;;;;;;;11.93;100.00;101906.13;5136307;27;20047;-49
2022/10/08 08:09:57;;;;;;;31.25;12.55;;;;;;;11.99;100.00;101910.69;5135102;27;20019;-48
2022/10/08 08:12:22;;;;;;;31.95;12.75;;;;;;;12.08;100.00;101917.94;5135460;27;20027;-48
2022/10/08 08:14:47;;;;;;;29.90;11.07;;;;;;;12.21;100.00;101921.91;5135848;27;20483;-49
2022/10/08 08:17:12;;;;;;;25.75;10.30;;;;;;;12.16;100.00;101922.59;5136016;27;20026;-48
2022/10/08 08:19:39;;;;;;;25.17;10.88;;;;;;;12.35;100.00;101918.16;5135076;27;20031;-50
2022/10/08 08:22:05;;;;;;;20.35;9.18;;;;;;;12.44;99.34;101928.00;5136171;27;20016;-48
2022/10/08 08:24:31;;;;;;;24.70;9.38;;;;;;;12.55;98.97;101930.97;5135092;27;20027;-44
2022/10/08 08:26:56;;;;;;;25.75;10.07;;;;;;;12.64;100.00;101934.81;5136341;27;20036;-50
2022/10/08 08:29:21;;;;;;;21.83;7.97;;;;;;;12.62;97.06;101935.59;5136139;27;20031;-49
2022/10/08 08:31:48;;;;;;;24.20;7.22;;;;;;;12.62;97.06;101948.50;5134835;27;20518;-49
2022/10/08 08:34:16;;;;;;;21.08;7.18;;;;;;;12.77;94.78;101953.38;5135726;27;20034;-48
2022/10/08 08:36:44;;;;;;;22.98;5.30;;;;;;;12.81;91.76;101952.69;5135775;27;20072;-47
2022/10/08 08:39:20;;;;;;;21.55;6.25;;;;;;;13.07;93.40;101958.84;5134736;27;20469;-49
2022/10/08 08:41:52;;;;;;;21.33;5.13;;;;;;;13.22;92.44;101962.81;5135463;27;20035;-47
2022/10/08 08:44:21;;;;;;;16.73;4.07;;;;;;;13.07;86.03;101958.84;5135562;27;20103;-50
2022/10/08 08:47:24;;;;;;;16.77;4.18;;;;;;;13.18;88.28;101967.88;5134244;27;20044;-47
2022/10/08 08:50:01;;;;;;;12.68;4.45;;;;;;;13.43;87.45;101970.53;5103410;27;20075;-48
2022/10/08 08:52:32;;;;;;;17.73;4.10;;;;;;;13.52;85.04;101975.13;5134713;27;20038;-49
2022/10/08 08:54:59;;;;;;;16.80;3.28;;;;;;;13.63;84.61;101981.59;5135395;27;20015;-46
2022/10/08 08:57:37;;;;;;;14.33;3.07;;;;;;;13.95;84.93;101974.03;5135516;27;20061;-50
2022/10/08 09:00:15;;;;;;;15.30;3.28;;;;;;;14.05;83.73;101985.63;5134593;27;20297;-46
2022/10/08 09:02:48;;;;;;;16.40;3.10;;;;;;;13.99;79.54;101986.28;5135038;27;20023;-50
2022/10/08 09:05:15;;;;;;;12.60;2.85;;;;;;;14.32;80.11;101985.63;5135146;27;20044;-50
2022/10/08 09:07:46;;;;;;;13.00;2.42;;;;;;;14.49;78.16;101983.59;5134207;27;20027;-50
2022/10/08 09:10:21;;;;;;;16.45;2.80;;;;;;;14.35;75.48;101990.03;5135254;27;20103;-50
2022/10/08 09:12:50;;;;;;;14.18;2.30;;;;;;;14.55;73.00;101988.06;5134781;27;20031;-47
2022/10/08 09:15:17;;;;;;;14.32;2.28;;;;;;;14.40;73.68;101986.75;5134207;27;20526;-47
2022/10/08 09:17:45;;;;;;;12.38;2.67;;;;;;;14.21;74.20;101997.38;5134720;27;20050;-50
2022/10/08 09:20:17;;;;;;;11.32;1.95;;;;;;;14.59;74.78;102002.88;5134376;27;20023;-50
2022/10/08 09:22:44;;;;;;;15.27;2.75;;;;;;;14.97;72.60;101998.03;5133967;27;20087;-50
2022/10/08 09:25:21;;;;;;;12.95;2.40;;;;;;;15.17;69.17;102009.03;5134860;27;20069;-48
2022/10/08 09:27:52;;;;;;;14.75;2.33;;;;;;;15.83;66.76;102003.91;5133737;27;20034;-44
2022/10/08 09:30:23;;;;;;;11.73;2.50;;;;;;;16.00;67.28;101997.47;5134579;27;20075;-48
2022/10/08 09:32:53;;;;;;;15.52;2.30;;;;;;;15.68;68.75;102012.19;5134593;27;20059;-49
2022/10/08 09:35:18;;;;;;;12.02;2.30;;;;;;;15.96;67.94;102019.03;5133581;27;20381;-49
2022/10/08 09:37:48;;;;;;;12.73;2.70;;;;;;;15.37;67.09;102024.31;5134324;27;20486;-48
2022/10/08 09:40:21;;;;;;;12.25;2.42;;;;;;;15.11;68.86;102027.88;5134511;27;20102;-50
2022/10/08 09:43:10;;;;;;;14.02;2.38;;;;;;;15.76;68.65;102029.75;5133497;27;20046;-48
2022/10/08 09:45:44;;;;;;;11.35;2.38;;;;;;;15.70;65.20;102034.78;5134173;27;20058;-53
2022/10/08 09:48:22;;;;;;;12.40;2.45;;;;;;;15.19;65.52;102045.44;5134547;27;20424;-50
2022/10/08 09:50:55;;;;;;;15.55;2.55;;;;;;;14.74;66.67;102046.66;5133456;27;20107;-50
2022/10/08 09:53:24;;;;;;;13.23;2.28;;;;;;;14.54;68.01;102056.34;5134182;27;20516;-50
2022/10/08 09:55:54;;;;;;;12.13;2.83;;;;;;;14.24;68.88;102046.72;5133375;27;20030;-45
2022/10/08 09:58:19;;;;;;;15.60;2.25;;;;;;;14.09;70.62;102062.66;5134295;27;20038;-49
2022/10/08 10:00:55;;;;;;;21.20;3.15;;;;;;;13.87;71.80;102066.22;5133933;27;20015;-46
2022/10/08 10:03:20;;;;;;;13.13;2.28;;;;;;;13.55;73.72;102060.72;5133415;27;20027;-49
2022/10/08 10:05:51;;;;;;;11.82;2.00;;;;;;;13.38;74.02;102066.16;5133773;27;20023;-50
2022/10/08 10:08:47;;;;;;;12.57;2.35;;;;;;;14.30;70.75;102063.34;5133997;27;20548;-50
2022/10/08 10:11:24;;;;;;;12.48;2.60;;;;;;;15.45;66.74;102067.88;5133280;27;20031;-49
2022/10/08 10:13:50;;;;;;;10.60;2.17;;;;;;;15.81;64.54;102068.88;5133872;27;20023;-49
2022/10/08 10:16:22;;;;;;;16.48;2.28;;;;;;;16.11;61.94;102063.63;5133880;27;20056;-48
2022/10/08 10:19:02;;;;;;;10.68;2.28;;;;;;;16.52;58.47;102067.25;5132999;27;20092;-50
2022/10/08 10:21:41;;;;;;;11.30;1.95;;;;;;;16.67;60.76;102065.00;5134068;27;20023;-45
2022/10/08 10:24:23;;;;;;;9.88;1.95;;;;;;;17.59;56.40;102060.09;5133016;28;20034;-49
2022/10/08 10:26:51;;;;;;;13.05;1.80;;;;;;;17.78;53.13;102072.63;5133551;28;20056;-48
2022/10/08 10:29:21;;;;;;;17.10;2.72;;;;;;;18.00;53.50;102067.84;5133777;28;20458;-47
2022/10/08 10:32:01;;;;;;;10.82;1.80;;;;;;;18.65;51.83;102071.56;5132901;27;20026;-49
2022/10/08 10:34:29;;;;;;;12.65;1.90;;;;;;;18.80;50.66;102080.47;5138099;27;20172;-49
2022/10/08 10:36:57;;;;;;;10.38;1.90;;;;;;;18.64;47.78;102082.84;5137790;27;20381;-50
2022/10/08 10:39:34;;;;;;;8.30;1.65;;;;;;;19.56;47.72;102075.44;5137312;27;20023;-48
2022/10/08 10:42:35;;;;;;;13.40;2.20;;;;;;;19.82;51.10;102074.91;5138317;27;20030;-50
2022/10/08 10:45:12;;;;;;;9.23;1.63;;;;;;;20.02;48.85;102080.31;5104107;27;20039;-45
2022/10/08 10:47:37;;;;;;;10.88;1.73;;;;;;;19.49;43.17;102084.06;5137502;27;20043;-48
2022/10/08 10:50:05;;;;;;;6.75;1.17;;;;;;;18.91;41.91;102079.84;5137907;27;20023;-49
2022/10/08 10:52:58;;;;;;;6.13;1.30;;;;;;;19.02;45.87;102085.22;5136627;27;20031;-45
2022/10/08 10:55:51;;;;;;;9.52;1.42;;;;;;;19.37;44.44;102092.66;5137886;27;20039;-49
2022/10/08 10:58:37;;;;;;;8.65;1.65;;;;;;;19.47;41.99;102087.53;5137786;27;20027;-50
2022/10/08 11:01:17;;;;;;;13.98;1.45;;;;;;;19.36;44.47;102090.88;5136895;27;20019;-48
2022/10/08 11:03:57;;;;;;;8.00;1.33;;;;;;;18.95;43.63;102079.88;5137406;27;20038;-49
2022/10/08 11:06:24;;;;;;;11.48;1.80;;;;;;;19.18;45.25;102080.19;5137188;27;20043;-50
2022/10/08 11:09:07;;;;;;;13.48;1.88;;;;;;;19.00;44.93;102089.50;5137391;27;20034;-49
2022/10/08 11:11:41;;;;;;;14.25;2.03;;;;;;;19.21;44.96;102086.34;5137280;27;20102;-50
2022/10/08 11:14:41;;;;;;;12.73;2.13;;;;;;;19.54;46.34;102089.38;5136743;27;20035;-48
2022/10/08 11:17:37;;;;;;;12.13;1.50;;;;;;;20.13;45.74;102092.66;5137527;27;20106;-51
2022/10/08 11:20:17;;;;;;;14.35;2.40;;;;;;;20.51;44.94;102086.88;5137286;27;20035;-48
2022/10/08 11:23:01;;;;;;;7.50;1.70;;;;;;;20.71;43.49;102087.94;5137037;27;20019;-49